sensor_id;sensor_type;location;lat;lon;timestamp;P1;durP1;ratioP1;P2;durP2;ratioP2
21546;SDS011;41275;51.912;4.388;2023-05-14T00:04:01;23.75;;;12.63;;
21546;SDS011;41275;51.912;4.388;2023-05-14T00:09:22;25.43;;;12.87;;
21546;SDS011;41275;51.912;4.388;2023-05-14T00:14:44;22.02;;;12.65;;
21546;SDS011;41275;51.912;4.388;2023-05-14T00:20:05;23.02;;;12.40;;
21546;SDS011;41275;51.912;4.388;2023-05-14T00:25:27;22.58;;;12.32;;
21546;SDS011;41275;51.912;4.388;2023-05-14T00:30:48;22.27;;;12.48;;
21546;SDS011;41275;51.912;4.388;2023-05-14T00:36:09;22.90;;;11.70;;
21546;SDS011;41275;51.912;4.388;2023-05-14T00:41:30;22.95;;;12.18;;
21546;SDS011;41275;51.912;4.388;2023-05-14T00:46:52;21.92;;;11.77;;
21546;SDS011;41275;51.912;4.388;2023-05-14T00:52:14;26.60;;;12.70;;
21546;SDS011;41275;51.912;4.388;2023-05-14T00:57:36;20.90;;;11.75;;
21546;SDS011;41275;51.912;4.388;2023-05-14T01:02:57;21.20;;;11.45;;
21546;SDS011;41275;51.912;4.388;2023-05-14T01:08:24;24.13;;;11.27;;
21546;SDS011;41275;51.912;4.388;2023-05-14T01:14:05;20.13;;;11.05;;
21546;SDS011;41275;51.912;4.388;2023-05-14T01:19:47;18.43;;;11.00;;
21546;SDS011;41275;51.912;4.388;2023-05-14T01:25:11;20.83;;;11.70;;
21546;SDS011;41275;51.912;4.388;2023-05-14T01:30:36;21.40;;;11.43;;
21546;SDS011;41275;51.912;4.388;2023-05-14T01:36:00;23.73;;;11.38;;
21546;SDS011;41275;51.912;4.388;2023-05-14T01:41:21;25.07;;;12.27;;
21546;SDS011;41275;51.912;4.388;2023-05-14T01:46:45;23.38;;;11.70;;
21546;SDS011;41275;51.912;4.388;2023-05-14T01:52:07;17.97;;;11.50;;
21546;SDS011;41275;51.912;4.388;2023-05-14T01:57:28;22.02;;;11.77;;
21546;SDS011;41275;51.912;4.388;2023-05-14T02:02:49;22.83;;;11.98;;
21546;SDS011;41275;51.912;4.388;2023-05-14T02:08:10;25.15;;;12.07;;
21546;SDS011;41275;51.912;4.388;2023-05-14T02:13:32;21.70;;;11.83;;
21546;SDS011;41275;51.912;4.388;2023-05-14T02:18:53;29.95;;;12.27;;
21546;SDS011;41275;51.912;4.388;2023-05-14T02:24:14;27.92;;;13.07;;
21546;SDS011;41275;51.912;4.388;2023-05-14T02:29:35;21.25;;;12.10;;
21546;SDS011;41275;51.912;4.388;2023-05-14T02:34:57;25.10;;;12.05;;
21546;SDS011;41275;51.912;4.388;2023-05-14T02:40:18;26.53;;;12.83;;
21546;SDS011;41275;51.912;4.388;2023-05-14T02:45:39;24.38;;;12.43;;
21546;SDS011;41275;51.912;4.388;2023-05-14T02:51:01;26.38;;;12.63;;
21546;SDS011;41275;51.912;4.388;2023-05-14T02:56:22;23.88;;;11.43;;
21546;SDS011;41275;51.912;4.388;2023-05-14T03:01:43;29.35;;;12.30;;
21546;SDS011;41275;51.912;4.388;2023-05-14T03:07:04;23.03;;;11.73;;
21546;SDS011;41275;51.912;4.388;2023-05-14T03:12:25;22.67;;;11.25;;
21546;SDS011;41275;51.912;4.388;2023-05-14T03:17:47;27.67;;;11.30;;
21546;SDS011;41275;51.912;4.388;2023-05-14T03:23:08;22.65;;;11.23;;
21546;SDS011;41275;51.912;4.388;2023-05-14T03:28:30;28.90;;;12.10;;
21546;SDS011;41275;51.912;4.388;2023-05-14T03:33:51;21.83;;;10.98;;
21546;SDS011;41275;51.912;4.388;2023-05-14T03:39:12;22.63;;;11.77;;
21546;SDS011;41275;51.912;4.388;2023-05-14T03:44:39;23.45;;;11.48;;
21546;SDS011;41275;51.912;4.388;2023-05-14T03:50:00;21.17;;;11.20;;
21546;SDS011;41275;51.912;4.388;2023-05-14T03:55:22;20.98;;;10.93;;
21546;SDS011;41275;51.912;4.388;2023-05-14T04:00:43;20.67;;;10.98;;
21546;SDS011;41275;51.912;4.388;2023-05-14T04:06:04;25.60;;;11.30;;
21546;SDS011;41275;51.912;4.388;2023-05-14T04:11:26;21.02;;;10.82;;
21546;SDS011;41275;51.912;4.388;2023-05-14T04:16:47;19.27;;;10.87;;
21546;SDS011;41275;51.912;4.388;2023-05-14T04:22:08;23.92;;;11.40;;
21546;SDS011;41275;51.912;4.388;2023-05-14T04:27:29;22.15;;;10.32;;
21546;SDS011;41275;51.912;4.388;2023-05-14T04:32:52;22.42;;;10.50;;
21546;SDS011;41275;51.912;4.388;2023-05-14T04:38:14;23.30;;;10.60;;
21546;SDS011;41275;51.912;4.388;2023-05-14T04:43:35;18.95;;;10.35;;
21546;SDS011;41275;51.912;4.388;2023-05-14T04:48:56;20.67;;;10.53;;
21546;SDS011;41275;51.912;4.388;2023-05-14T04:54:17;19.20;;;10.27;;
21546;SDS011;41275;51.912;4.388;2023-05-14T04:59:38;21.05;;;10.20;;
21546;SDS011;41275;51.912;4.388;2023-05-14T05:05:00;18.73;;;9.93;;
21546;SDS011;41275;51.912;4.388;2023-05-14T05:10:21;21.63;;;10.67;;
21546;SDS011;41275;51.912;4.388;2023-05-14T05:15:42;20.00;;;10.02;;
21546;SDS011;41275;51.912;4.388;2023-05-14T05:21:04;21.88;;;10.57;;
21546;SDS011;41275;51.912;4.388;2023-05-14T05:26:25;19.63;;;11.25;;
21546;SDS011;41275;51.912;4.388;2023-05-14T05:31:48;29.08;;;11.88;;
21546;SDS011;41275;51.912;4.388;2023-05-14T05:37:09;21.05;;;12.07;;
21546;SDS011;41275;51.912;4.388;2023-05-14T05:42:33;24.38;;;12.32;;
21546;SDS011;41275;51.912;4.388;2023-05-14T05:47:55;25.53;;;12.47;;
21546;SDS011;41275;51.912;4.388;2023-05-14T05:53:16;23.02;;;12.55;;
21546;SDS011;41275;51.912;4.388;2023-05-14T05:58:37;25.75;;;12.93;;
21546;SDS011;41275;51.912;4.388;2023-05-14T06:03:58;27.83;;;14.60;;
21546;SDS011;41275;51.912;4.388;2023-05-14T06:09:20;26.80;;;14.90;;
21546;SDS011;41275;51.912;4.388;2023-05-14T06:14:41;26.65;;;15.40;;
21546;SDS011;41275;51.912;4.388;2023-05-14T06:20:02;30.67;;;15.35;;
21546;SDS011;41275;51.912;4.388;2023-05-14T06:25:27;28.57;;;15.87;;
21546;SDS011;41275;51.912;4.388;2023-05-14T06:30:48;26.40;;;15.50;;
21546;SDS011;41275;51.912;4.388;2023-05-14T06:36:10;28.23;;;14.88;;
21546;SDS011;41275;51.912;4.388;2023-05-14T06:41:31;23.63;;;14.13;;
21546;SDS011;41275;51.912;4.388;2023-05-14T06:46:52;24.93;;;13.60;;
21546;SDS011;41275;51.912;4.388;2023-05-14T06:52:13;23.60;;;12.85;;
21546;SDS011;41275;51.912;4.388;2023-05-14T06:57:35;21.42;;;10.93;;
21546;SDS011;41275;51.912;4.388;2023-05-14T07:02:56;19.38;;;9.90;;
21546;SDS011;41275;51.912;4.388;2023-05-14T07:08:17;15.65;;;9.57;;
21546;SDS011;41275;51.912;4.388;2023-05-14T07:13:39;15.50;;;8.97;;
21546;SDS011;41275;51.912;4.388;2023-05-14T07:19:00;19.17;;;9.25;;
21546;SDS011;41275;51.912;4.388;2023-05-14T07:24:22;20.80;;;8.90;;
21546;SDS011;41275;51.912;4.388;2023-05-14T07:29:43;14.07;;;8.10;;
21546;SDS011;41275;51.912;4.388;2023-05-14T07:35:05;14.07;;;8.50;;
21546;SDS011;41275;51.912;4.388;2023-05-14T07:40:26;16.65;;;7.82;;
21546;SDS011;41275;51.912;4.388;2023-05-14T07:45:47;19.52;;;8.25;;
21546;SDS011;41275;51.912;4.388;2023-05-14T07:51:09;14.23;;;7.93;;
21546;SDS011;41275;51.912;4.388;2023-05-14T07:56:31;15.07;;;7.28;;
21546;SDS011;41275;51.912;4.388;2023-05-14T08:01:52;14.65;;;7.05;;
21546;SDS011;41275;51.912;4.388;2023-05-14T08:07:14;16.65;;;7.72;;
21546;SDS011;41275;51.912;4.388;2023-05-14T08:12:35;12.98;;;6.53;;
21546;SDS011;41275;51.912;4.388;2023-05-14T08:17:56;16.48;;;6.78;;
21546;SDS011;41275;51.912;4.388;2023-05-14T08:23:23;13.63;;;6.47;;
21546;SDS011;41275;51.912;4.388;2023-05-14T08:28:44;12.07;;;6.67;;
21546;SDS011;41275;51.912;4.388;2023-05-14T08:34:05;11.00;;;6.40;;
21546;SDS011;41275;51.912;4.388;2023-05-14T08:39:26;10.20;;;5.27;;
21546;SDS011;41275;51.912;4.388;2023-05-14T08:44:48;8.82;;;4.90;;
21546;SDS011;41275;51.912;4.388;2023-05-14T08:50:09;10.07;;;4.30;;
21546;SDS011;41275;51.912;4.388;2023-05-14T08:55:31;8.82;;;4.50;;
21546;SDS011;41275;51.912;4.388;2023-05-14T09:00:53;10.13;;;5.35;;
21546;SDS011;41275;51.912;4.388;2023-05-14T09:06:15;10.93;;;5.45;;
21546;SDS011;41275;51.912;4.388;2023-05-14T09:11:55;10.77;;;5.00;;
21546;SDS011;41275;51.912;4.388;2023-05-14T09:17:16;12.55;;;4.97;;
21546;SDS011;41275;51.912;4.388;2023-05-14T09:22:38;13.68;;;4.40;;
21546;SDS011;41275;51.912;4.388;2023-05-14T09:27:59;11.07;;;4.57;;
21546;SDS011;41275;51.912;4.388;2023-05-14T09:33:26;9.77;;;4.55;;
21546;SDS011;41275;51.912;4.388;2023-05-14T09:38:49;11.40;;;4.90;;
21546;SDS011;41275;51.912;4.388;2023-05-14T09:44:10;9.48;;;4.38;;
21546;SDS011;41275;51.912;4.388;2023-05-14T09:49:32;10.32;;;4.18;;
21546;SDS011;41275;51.912;4.388;2023-05-14T09:54:53;11.95;;;4.70;;
21546;SDS011;41275;51.912;4.388;2023-05-14T10:00:15;11.98;;;4.63;;
21546;SDS011;41275;51.912;4.388;2023-05-14T10:05:36;11.70;;;4.70;;
21546;SDS011;41275;51.912;4.388;2023-05-14T10:11:00;12.65;;;4.60;;
21546;SDS011;41275;51.912;4.388;2023-05-14T10:16:33;12.55;;;4.82;;
21546;SDS011;41275;51.912;4.388;2023-05-14T10:22:04;10.53;;;4.20;;
21546;SDS011;41275;51.912;4.388;2023-05-14T10:27:27;10.35;;;4.10;;
21546;SDS011;41275;51.912;4.388;2023-05-14T10:33:04;11.13;;;4.43;;
21546;SDS011;41275;51.912;4.388;2023-05-14T10:38:29;9.10;;;3.93;;
21546;SDS011;41275;51.912;4.388;2023-05-14T10:43:53;10.83;;;3.80;;
21546;SDS011;41275;51.912;4.388;2023-05-14T10:49:17;9.00;;;4.10;;
21546;SDS011;41275;51.912;4.388;2023-05-14T10:54:38;8.07;;;3.42;;
21546;SDS011;41275;51.912;4.388;2023-05-14T10:59:59;12.37;;;4.40;;
21546;SDS011;41275;51.912;4.388;2023-05-14T11:05:21;15.93;;;4.47;;
21546;SDS011;41275;51.912;4.388;2023-05-14T11:10:42;10.38;;;4.20;;
21546;SDS011;41275;51.912;4.388;2023-05-14T11:16:06;10.03;;;4.47;;
21546;SDS011;41275;51.912;4.388;2023-05-14T11:21:28;9.52;;;4.28;;
21546;SDS011;41275;51.912;4.388;2023-05-14T11:26:50;12.00;;;4.53;;
21546;SDS011;41275;51.912;4.388;2023-05-14T11:32:13;16.92;;;5.03;;
21546;SDS011;41275;51.912;4.388;2023-05-14T11:37:35;10.70;;;4.77;;
21546;SDS011;41275;51.912;4.388;2023-05-14T11:42:56;11.60;;;4.80;;
21546;SDS011;41275;51.912;4.388;2023-05-14T11:48:21;9.67;;;4.63;;
21546;SDS011;41275;51.912;4.388;2023-05-14T11:53:43;10.50;;;4.40;;
21546;SDS011;41275;51.912;4.388;2023-05-14T11:59:05;9.93;;;4.47;;
21546;SDS011;41275;51.912;4.388;2023-05-14T12:04:27;9.95;;;4.40;;
21546;SDS011;41275;51.912;4.388;2023-05-14T12:09:49;11.97;;;4.80;;
21546;SDS011;41275;51.912;4.388;2023-05-14T12:15:10;10.85;;;4.45;;
21546;SDS011;41275;51.912;4.388;2023-05-14T12:20:33;10.43;;;4.33;;
21546;SDS011;41275;51.912;4.388;2023-05-14T12:25:54;9.52;;;4.22;;
21546;SDS011;41275;51.912;4.388;2023-05-14T12:31:26;8.57;;;4.00;;
21546;SDS011;41275;51.912;4.388;2023-05-14T12:36:48;10.82;;;4.35;;
21546;SDS011;41275;51.912;4.388;2023-05-14T12:42:10;9.57;;;4.05;;
21546;SDS011;41275;51.912;4.388;2023-05-14T12:47:31;11.10;;;4.03;;
21546;SDS011;41275;51.912;4.388;2023-05-14T12:52:53;9.48;;;4.00;;
21546;SDS011;41275;51.912;4.388;2023-05-14T12:58:14;13.10;;;4.72;;
21546;SDS011;41275;51.912;4.388;2023-05-14T13:03:35;14.65;;;6.55;;
21546;SDS011;41275;51.912;4.388;2023-05-14T13:08:57;16.60;;;7.53;;
21546;SDS011;41275;51.912;4.388;2023-05-14T13:14:19;11.90;;;4.75;;
21546;SDS011;41275;51.912;4.388;2023-05-14T13:19:41;14.87;;;7.73;;
21546;SDS011;41275;51.912;4.388;2023-05-14T13:25:02;10.93;;;4.73;;
21546;SDS011;41275;51.912;4.388;2023-05-14T13:30:24;13.40;;;5.72;;
21546;SDS011;41275;51.912;4.388;2023-05-14T13:35:45;10.37;;;5.20;;
21546;SDS011;41275;51.912;4.388;2023-05-14T13:41:06;13.37;;;6.20;;
21546;SDS011;41275;51.912;4.388;2023-05-14T13:46:28;15.60;;;7.15;;
21546;SDS011;41275;51.912;4.388;2023-05-14T13:51:49;12.63;;;4.88;;
21546;SDS011;41275;51.912;4.388;2023-05-14T13:57:10;11.35;;;4.85;;
21546;SDS011;41275;51.912;4.388;2023-05-14T14:02:31;11.07;;;5.00;;
21546;SDS011;41275;51.912;4.388;2023-05-14T14:07:53;10.57;;;5.30;;
21546;SDS011;41275;51.912;4.388;2023-05-14T14:13:15;10.55;;;4.88;;
21546;SDS011;41275;51.912;4.388;2023-05-14T14:18:36;16.20;;;5.20;;
21546;SDS011;41275;51.912;4.388;2023-05-14T14:23:57;8.97;;;5.43;;
21546;SDS011;41275;51.912;4.388;2023-05-14T14:29:18;11.17;;;5.43;;
21546;SDS011;41275;51.912;4.388;2023-05-14T14:34:40;11.70;;;5.30;;
21546;SDS011;41275;51.912;4.388;2023-05-14T14:40:02;12.32;;;5.22;;
21546;SDS011;41275;51.912;4.388;2023-05-14T14:45:23;12.33;;;4.80;;
21546;SDS011;41275;51.912;4.388;2023-05-14T14:50:44;10.30;;;4.28;;
21546;SDS011;41275;51.912;4.388;2023-05-14T14:56:06;9.88;;;3.70;;
21546;SDS011;41275;51.912;4.388;2023-05-14T15:01:27;9.77;;;4.10;;
21546;SDS011;41275;51.912;4.388;2023-05-14T15:06:48;10.15;;;4.07;;
21546;SDS011;41275;51.912;4.388;2023-05-14T15:12:09;15.73;;;4.57;;
21546;SDS011;41275;51.912;4.388;2023-05-14T15:17:31;9.97;;;4.50;;
21546;SDS011;41275;51.912;4.388;2023-05-14T15:22:52;9.75;;;4.18;;
21546;SDS011;41275;51.912;4.388;2023-05-14T15:28:13;9.32;;;3.90;;
21546;SDS011;41275;51.912;4.388;2023-05-14T15:33:35;12.50;;;4.00;;
21546;SDS011;41275;51.912;4.388;2023-05-14T15:38:56;7.18;;;4.28;;
21546;SDS011;41275;51.912;4.388;2023-05-14T15:44:17;12.02;;;4.10;;
21546;SDS011;41275;51.912;4.388;2023-05-14T15:49:38;7.80;;;4.40;;
21546;SDS011;41275;51.912;4.388;2023-05-14T15:55:00;10.53;;;4.50;;
21546;SDS011;41275;51.912;4.388;2023-05-14T16:00:21;9.75;;;4.50;;
21546;SDS011;41275;51.912;4.388;2023-05-14T16:05:44;9.35;;;4.38;;
21546;SDS011;41275;51.912;4.388;2023-05-14T16:11:05;8.90;;;3.90;;
21546;SDS011;41275;51.912;4.388;2023-05-14T16:16:27;7.40;;;4.03;;
21546;SDS011;41275;51.912;4.388;2023-05-14T16:21:48;9.53;;;4.30;;
21546;SDS011;41275;51.912;4.388;2023-05-14T16:27:09;7.13;;;3.97;;
21546;SDS011;41275;51.912;4.388;2023-05-14T16:32:31;11.17;;;4.03;;
21546;SDS011;41275;51.912;4.388;2023-05-14T16:37:52;17.98;;;7.15;;
21546;SDS011;41275;51.912;4.388;2023-05-14T16:43:14;8.53;;;4.03;;
21546;SDS011;41275;51.912;4.388;2023-05-14T16:48:35;6.85;;;3.90;;
21546;SDS011;41275;51.912;4.388;2023-05-14T16:53:56;8.35;;;3.90;;
21546;SDS011;41275;51.912;4.388;2023-05-14T16:59:17;8.33;;;3.80;;
21546;SDS011;41275;51.912;4.388;2023-05-14T17:04:38;9.88;;;3.35;;
21546;SDS011;41275;51.912;4.388;2023-05-14T17:10:01;6.93;;;2.90;;
21546;SDS011;41275;51.912;4.388;2023-05-14T17:15:22;5.65;;;2.70;;
21546;SDS011;41275;51.912;4.388;2023-05-14T17:20:44;9.40;;;3.20;;
21546;SDS011;41275;51.912;4.388;2023-05-14T17:26:05;6.75;;;3.28;;
21546;SDS011;41275;51.912;4.388;2023-05-14T17:31:26;5.30;;;2.63;;
21546;SDS011;41275;51.912;4.388;2023-05-14T17:36:47;9.05;;;2.88;;
21546;SDS011;41275;51.912;4.388;2023-05-14T17:42:11;7.40;;;3.60;;
21546;SDS011;41275;51.912;4.388;2023-05-14T17:47:32;8.65;;;3.40;;
21546;SDS011;41275;51.912;4.388;2023-05-14T17:52:53;6.97;;;3.73;;
21546;SDS011;41275;51.912;4.388;2023-05-14T17:58:15;8.93;;;3.45;;
21546;SDS011;41275;51.912;4.388;2023-05-14T18:03:36;9.48;;;3.50;;
21546;SDS011;41275;51.912;4.388;2023-05-14T18:08:57;8.23;;;3.67;;
21546;SDS011;41275;51.912;4.388;2023-05-14T18:14:19;9.20;;;3.38;;
21546;SDS011;41275;51.912;4.388;2023-05-14T18:19:40;10.65;;;4.10;;
21546;SDS011;41275;51.912;4.388;2023-05-14T18:25:01;11.65;;;4.00;;
21546;SDS011;41275;51.912;4.388;2023-05-14T18:30:22;9.17;;;4.07;;
21546;SDS011;41275;51.912;4.388;2023-05-14T18:35:43;11.50;;;4.38;;
21546;SDS011;41275;51.912;4.388;2023-05-14T18:41:05;8.57;;;4.28;;
21546;SDS011;41275;51.912;4.388;2023-05-14T18:46:26;11.03;;;4.47;;
21546;SDS011;41275;51.912;4.388;2023-05-14T18:51:48;10.55;;;4.65;;
21546;SDS011;41275;51.912;4.388;2023-05-14T18:57:09;10.10;;;3.55;;
21546;SDS011;41275;51.912;4.388;2023-05-14T19:02:30;8.60;;;3.97;;
21546;SDS011;41275;51.912;4.388;2023-05-14T19:07:52;10.10;;;4.43;;
21546;SDS011;41275;51.912;4.388;2023-05-14T19:13:13;8.40;;;4.07;;
21546;SDS011;41275;51.912;4.388;2023-05-14T19:18:36;12.95;;;4.80;;
21546;SDS011;41275;51.912;4.388;2023-05-14T19:23:57;10.45;;;4.15;;
21546;SDS011;41275;51.912;4.388;2023-05-14T19:29:18;12.88;;;4.68;;
21546;SDS011;41275;51.912;4.388;2023-05-14T19:34:39;8.50;;;4.60;;
21546;SDS011;41275;51.912;4.388;2023-05-14T19:40:01;10.67;;;5.13;;
21546;SDS011;41275;51.912;4.388;2023-05-14T19:45:22;8.60;;;4.50;;
21546;SDS011;41275;51.912;4.388;2023-05-14T19:50:44;11.30;;;5.25;;
21546;SDS011;41275;51.912;4.388;2023-05-14T19:56:06;12.48;;;4.57;;
21546;SDS011;41275;51.912;4.388;2023-05-14T20:01:27;11.70;;;5.55;;
21546;SDS011;41275;51.912;4.388;2023-05-14T20:06:49;10.13;;;6.50;;
21546;SDS011;41275;51.912;4.388;2023-05-14T20:12:11;12.95;;;5.97;;
21546;SDS011;41275;51.912;4.388;2023-05-14T20:17:33;17.20;;;6.90;;
21546;SDS011;41275;51.912;4.388;2023-05-14T20:22:54;10.23;;;6.72;;
21546;SDS011;41275;51.912;4.388;2023-05-14T20:28:15;14.55;;;7.05;;
21546;SDS011;41275;51.912;4.388;2023-05-14T20:33:36;15.37;;;6.67;;
21546;SDS011;41275;51.912;4.388;2023-05-14T20:38:57;12.38;;;7.22;;
21546;SDS011;41275;51.912;4.388;2023-05-14T20:44:20;17.05;;;8.40;;
21546;SDS011;41275;51.912;4.388;2023-05-14T20:49:41;13.73;;;8.33;;
21546;SDS011;41275;51.912;4.388;2023-05-14T20:55:02;17.52;;;9.02;;
21546;SDS011;41275;51.912;4.388;2023-05-14T21:00:24;13.95;;;8.27;;
21546;SDS011;41275;51.912;4.388;2023-05-14T21:05:45;15.53;;;8.13;;
21546;SDS011;41275;51.912;4.388;2023-05-14T21:11:06;15.25;;;8.43;;
21546;SDS011;41275;51.912;4.388;2023-05-14T21:16:28;12.95;;;8.00;;
21546;SDS011;41275;51.912;4.388;2023-05-14T21:21:50;13.85;;;8.40;;
21546;SDS011;41275;51.912;4.388;2023-05-14T21:27:11;16.73;;;8.33;;
21546;SDS011;41275;51.912;4.388;2023-05-14T21:32:33;16.48;;;8.45;;
21546;SDS011;41275;51.912;4.388;2023-05-14T21:37:54;15.10;;;8.65;;
21546;SDS011;41275;51.912;4.388;2023-05-14T21:43:15;15.77;;;8.23;;
21546;SDS011;41275;51.912;4.388;2023-05-14T21:48:36;13.43;;;8.73;;
21546;SDS011;41275;51.912;4.388;2023-05-14T21:53:58;15.23;;;8.65;;
21546;SDS011;41275;51.912;4.388;2023-05-14T21:59:19;19.30;;;9.98;;
21546;SDS011;41275;51.912;4.388;2023-05-14T22:04:40;17.42;;;10.82;;
21546;SDS011;41275;51.912;4.388;2023-05-14T22:10:01;20.00;;;12.00;;
21546;SDS011;41275;51.912;4.388;2023-05-14T22:15:23;18.20;;;11.07;;
21546;SDS011;41275;51.912;4.388;2023-05-14T22:20:44;19.15;;;11.75;;
21546;SDS011;41275;51.912;4.388;2023-05-14T22:26:05;21.60;;;11.95;;
21546;SDS011;41275;51.912;4.388;2023-05-14T22:31:28;21.63;;;12.07;;
21546;SDS011;41275;51.912;4.388;2023-05-14T22:36:49;25.02;;;13.75;;
21546;SDS011;41275;51.912;4.388;2023-05-14T22:42:10;23.90;;;14.73;;
21546;SDS011;41275;51.912;4.388;2023-05-14T22:47:32;26.60;;;14.95;;
21546;SDS011;41275;51.912;4.388;2023-05-14T22:52:53;29.30;;;16.10;;
21546;SDS011;41275;51.912;4.388;2023-05-14T22:58:14;29.80;;;16.03;;
21546;SDS011;41275;51.912;4.388;2023-05-14T23:03:35;28.83;;;15.95;;
21546;SDS011;41275;51.912;4.388;2023-05-14T23:08:56;32.83;;;16.88;;
21546;SDS011;41275;51.912;4.388;2023-05-14T23:14:18;35.17;;;17.70;;
21546;SDS011;41275;51.912;4.388;2023-05-14T23:19:39;29.73;;;17.20;;
21546;SDS011;41275;51.912;4.388;2023-05-14T23:25:01;35.47;;;17.38;;
21546;SDS011;41275;51.912;4.388;2023-05-14T23:30:22;29.37;;;16.27;;
21546;SDS011;41275;51.912;4.388;2023-05-14T23:35:43;27.37;;;15.67;;
21546;SDS011;41275;51.912;4.388;2023-05-14T23:41:04;28.02;;;15.43;;
21546;SDS011;41275;51.912;4.388;2023-05-14T23:46:25;27.65;;;15.77;;
21546;SDS011;41275;51.912;4.388;2023-05-14T23:51:47;24.83;;;15.15;;
21546;SDS011;41275;51.912;4.388;2023-05-14T23:57:08;24.38;;;13.85;;
